sensor_id;sensor_type;location;lat;lon;timestamp;P1;durP1;ratioP1;P2;durP2;ratioP2
28335;SDS011;15592;53.656;7.276;2023-03-03T00:01:07;17.42;;;10.38;;
28335;SDS011;15592;53.656;7.276;2023-03-03T00:03:32;18.25;;;10.70;;
28335;SDS011;15592;53.656;7.276;2023-03-03T00:05:58;16.85;;;9.93;;
28335;SDS011;15592;53.656;7.276;2023-03-03T00:08:24;19.42;;;10.85;;
28335;SDS011;15592;53.656;7.276;2023-03-03T00:10:50;17.65;;;9.77;;
28335;SDS011;15592;53.656;7.276;2023-03-03T00:13:20;16.35;;;9.80;;
28335;SDS011;15592;53.656;7.276;2023-03-03T00:15:48;17.50;;;10.32;;
28335;SDS011;15592;53.656;7.276;2023-03-03T00:18:19;15.27;;;9.15;;
28335;SDS011;15592;53.656;7.276;2023-03-03T00:20:54;15.18;;;8.20;;
28335;SDS011;15592;53.656;7.276;2023-03-03T00:23:35;14.90;;;8.63;;
28335;SDS011;15592;53.656;7.276;2023-03-03T00:26:01;12.40;;;6.97;;
28335;SDS011;15592;53.656;7.276;2023-03-03T00:28:45;12.35;;;7.70;;
28335;SDS011;15592;53.656;7.276;2023-03-03T00:31:14;11.90;;;7.38;;
28335;SDS011;15592;53.656;7.276;2023-03-03T00:34:01;11.27;;;6.93;;
28335;SDS011;15592;53.656;7.276;2023-03-03T00:36:44;10.32;;;6.10;;
28335;SDS011;15592;53.656;7.276;2023-03-03T00:39:43;11.00;;;6.07;;
28335;SDS011;15592;53.656;7.276;2023-03-03T00:42:16;10.65;;;6.35;;
28335;SDS011;15592;53.656;7.276;2023-03-03T00:49:58;8.43;;;5.15;;
28335;SDS011;15592;53.656;7.276;2023-03-03T00:52:56;8.23;;;4.50;;
28335;SDS011;15592;53.656;7.276;2023-03-03T00:55:28;7.47;;;3.70;;
28335;SDS011;15592;53.656;7.276;2023-03-03T00:57:54;10.88;;;2.70;;
28335;SDS011;15592;53.656;7.276;2023-03-03T01:00:20;9.25;;;2.58;;
28335;SDS011;15592;53.656;7.276;2023-03-03T01:02:45;11.13;;;2.83;;
28335;SDS011;15592;53.656;7.276;2023-03-03T01:05:12;9.43;;;2.13;;
28335;SDS011;15592;53.656;7.276;2023-03-03T01:07:39;9.23;;;2.17;;
28335;SDS011;15592;53.656;7.276;2023-03-03T01:10:05;6.57;;;1.80;;
28335;SDS011;15592;53.656;7.276;2023-03-03T01:12:31;4.47;;;1.85;;
28335;SDS011;15592;53.656;7.276;2023-03-03T01:14:56;9.63;;;2.17;;
28335;SDS011;15592;53.656;7.276;2023-03-03T01:17:22;8.20;;;2.00;;
28335;SDS011;15592;53.656;7.276;2023-03-03T01:19:48;7.82;;;1.60;;
28335;SDS011;15592;53.656;7.276;2023-03-03T01:22:13;7.05;;;1.75;;
28335;SDS011;15592;53.656;7.276;2023-03-03T01:24:39;7.55;;;1.13;;
28335;SDS011;15592;53.656;7.276;2023-03-03T01:27:05;12.75;;;1.67;;
28335;SDS011;15592;53.656;7.276;2023-03-03T01:29:30;8.68;;;1.63;;
28335;SDS011;15592;53.656;7.276;2023-03-03T01:31:56;7.78;;;1.42;;
28335;SDS011;15592;53.656;7.276;2023-03-03T01:34:22;10.15;;;1.20;;
28335;SDS011;15592;53.656;7.276;2023-03-03T01:36:48;6.15;;;1.10;;
28335;SDS011;15592;53.656;7.276;2023-03-03T01:39:13;4.82;;;0.90;;
28335;SDS011;15592;53.656;7.276;2023-03-03T01:41:39;11.85;;;1.40;;
28335;SDS011;15592;53.656;7.276;2023-03-03T01:44:05;8.00;;;1.17;;
28335;SDS011;15592;53.656;7.276;2023-03-03T01:49:06;3.35;;;1.63;;
28335;SDS011;15592;53.656;7.276;2023-03-03T01:51:40;2.58;;;0.80;;
28335;SDS011;15592;53.656;7.276;2023-03-03T01:54:14;2.72;;;1.00;;
28335;SDS011;15592;53.656;7.276;2023-03-03T01:56:45;11.02;;;1.35;;
28335;SDS011;15592;53.656;7.276;2023-03-03T01:59:13;10.25;;;1.55;;
28335;SDS011;15592;53.656;7.276;2023-03-03T02:01:53;10.65;;;1.73;;
28335;SDS011;15592;53.656;7.276;2023-03-03T02:04:18;8.70;;;1.20;;
28335;SDS011;15592;53.656;7.276;2023-03-03T02:06:54;11.77;;;1.70;;
28335;SDS011;15592;53.656;7.276;2023-03-03T02:09:31;10.57;;;1.52;;
28335;SDS011;15592;53.656;7.276;2023-03-03T02:12:08;7.90;;;1.35;;
28335;SDS011;15592;53.656;7.276;2023-03-03T02:14:37;8.93;;;1.63;;
28335;SDS011;15592;53.656;7.276;2023-03-03T02:17:03;9.57;;;1.30;;
28335;SDS011;15592;53.656;7.276;2023-03-03T02:19:43;5.13;;;1.50;;
28335;SDS011;15592;53.656;7.276;2023-03-03T02:22:16;12.73;;;1.65;;
28335;SDS011;15592;53.656;7.276;2023-03-03T02:24:49;10.98;;;1.50;;
28335;SDS011;15592;53.656;7.276;2023-03-03T02:27:17;8.20;;;1.63;;
28335;SDS011;15592;53.656;7.276;2023-03-03T02:29:43;12.48;;;1.90;;
28335;SDS011;15592;53.656;7.276;2023-03-03T02:32:09;8.60;;;1.35;;
28335;SDS011;15592;53.656;7.276;2023-03-03T02:34:48;13.27;;;1.50;;
28335;SDS011;15592;53.656;7.276;2023-03-03T02:39:42;4.72;;;1.42;;
28335;SDS011;15592;53.656;7.276;2023-03-03T02:42:12;7.85;;;1.23;;
28335;SDS011;15592;53.656;7.276;2023-03-03T02:44:44;10.88;;;1.70;;
28335;SDS011;15592;53.656;7.276;2023-03-03T02:47:10;7.32;;;1.27;;
28335;SDS011;15592;53.656;7.276;2023-03-03T02:49:36;7.45;;;1.70;;
28335;SDS011;15592;53.656;7.276;2023-03-03T02:52:03;10.82;;;1.95;;
28335;SDS011;15592;53.656;7.276;2023-03-03T02:54:31;8.57;;;1.58;;
28335;SDS011;15592;53.656;7.276;2023-03-03T02:56:57;5.47;;;1.58;;
28335;SDS011;15592;53.656;7.276;2023-03-03T02:59:23;12.27;;;1.85;;
28335;SDS011;15592;53.656;7.276;2023-03-03T03:01:49;13.98;;;1.75;;
28335;SDS011;15592;53.656;7.276;2023-03-03T03:04:16;9.88;;;1.52;;
28335;SDS011;15592;53.656;7.276;2023-03-03T03:06:44;10.02;;;2.47;;
28335;SDS011;15592;53.656;7.276;2023-03-03T03:09:10;11.15;;;1.85;;
28335;SDS011;15592;53.656;7.276;2023-03-03T03:11:37;7.78;;;1.55;;
28335;SDS011;15592;53.656;7.276;2023-03-03T03:14:04;11.23;;;2.13;;
28335;SDS011;15592;53.656;7.276;2023-03-03T03:16:31;11.60;;;1.50;;
28335;SDS011;15592;53.656;7.276;2023-03-03T03:18:58;8.00;;;1.42;;
28335;SDS011;15592;53.656;7.276;2023-03-03T03:21:24;14.63;;;2.10;;
28335;SDS011;15592;53.656;7.276;2023-03-03T03:23:50;12.77;;;2.28;;
28335;SDS011;15592;53.656;7.276;2023-03-03T03:26:15;8.30;;;1.58;;
28335;SDS011;15592;53.656;7.276;2023-03-03T03:28:41;5.30;;;1.60;;
28335;SDS011;15592;53.656;7.276;2023-03-03T03:31:07;9.18;;;1.88;;
28335;SDS011;15592;53.656;7.276;2023-03-03T03:33:33;9.13;;;1.88;;
28335;SDS011;15592;53.656;7.276;2023-03-03T03:35:59;4.55;;;1.70;;
28335;SDS011;15592;53.656;7.276;2023-03-03T03:38:26;7.18;;;1.80;;
28335;SDS011;15592;53.656;7.276;2023-03-03T03:40:53;5.63;;;1.50;;
28335;SDS011;15592;53.656;7.276;2023-03-03T03:43:19;5.13;;;1.70;;
28335;SDS011;15592;53.656;7.276;2023-03-03T03:45:44;6.93;;;1.55;;
28335;SDS011;15592;53.656;7.276;2023-03-03T03:48:10;8.18;;;2.08;;
28335;SDS011;15592;53.656;7.276;2023-03-03T03:50:36;12.50;;;1.70;;
28335;SDS011;15592;53.656;7.276;2023-03-03T03:53:02;10.02;;;2.00;;
28335;SDS011;15592;53.656;7.276;2023-03-03T03:55:29;9.45;;;2.38;;
28335;SDS011;15592;53.656;7.276;2023-03-03T03:57:55;7.70;;;1.60;;
28335;SDS011;15592;53.656;7.276;2023-03-03T04:00:21;13.93;;;2.08;;
28335;SDS011;15592;53.656;7.276;2023-03-03T04:02:47;10.05;;;1.90;;
28335;SDS011;15592;53.656;7.276;2023-03-03T04:05:13;8.52;;;1.98;;
28335;SDS011;15592;53.656;7.276;2023-03-03T04:07:39;9.02;;;1.70;;
28335;SDS011;15592;53.656;7.276;2023-03-03T04:10:04;9.73;;;2.65;;
28335;SDS011;15592;53.656;7.276;2023-03-03T04:12:30;5.30;;;2.00;;
28335;SDS011;15592;53.656;7.276;2023-03-03T04:15:06;8.50;;;1.83;;
28335;SDS011;15592;53.656;7.276;2023-03-03T04:17:33;9.00;;;1.67;;
28335;SDS011;15592;53.656;7.276;2023-03-03T04:19:59;11.30;;;1.75;;
28335;SDS011;15592;53.656;7.276;2023-03-03T04:22:26;13.57;;;1.95;;
28335;SDS011;15592;53.656;7.276;2023-03-03T04:24:52;7.80;;;1.60;;
28335;SDS011;15592;53.656;7.276;2023-03-03T04:27:17;6.95;;;2.10;;
28335;SDS011;15592;53.656;7.276;2023-03-03T04:29:43;6.03;;;1.85;;
28335;SDS011;15592;53.656;7.276;2023-03-03T04:32:08;10.13;;;1.83;;
28335;SDS011;15592;53.656;7.276;2023-03-03T04:34:34;7.85;;;1.90;;
28335;SDS011;15592;53.656;7.276;2023-03-03T04:37:00;2.38;;;1.42;;
28335;SDS011;15592;53.656;7.276;2023-03-03T04:39:26;3.78;;;1.50;;
28335;SDS011;15592;53.656;7.276;2023-03-03T04:41:52;6.93;;;1.60;;
28335;SDS011;15592;53.656;7.276;2023-03-03T04:44:18;3.53;;;1.40;;
28335;SDS011;15592;53.656;7.276;2023-03-03T04:46:43;2.25;;;1.30;;
28335;SDS011;15592;53.656;7.276;2023-03-03T04:49:09;1.25;;;1.08;;
28335;SDS011;15592;53.656;7.276;2023-03-03T04:51:34;3.97;;;1.13;;
28335;SDS011;15592;53.656;7.276;2023-03-03T04:54:00;3.72;;;1.10;;
28335;SDS011;15592;53.656;7.276;2023-03-03T04:56:26;1.38;;;0.70;;
28335;SDS011;15592;53.656;7.276;2023-03-03T04:58:52;1.38;;;0.80;;
28335;SDS011;15592;53.656;7.276;2023-03-03T05:01:18;1.20;;;0.70;;
28335;SDS011;15592;53.656;7.276;2023-03-03T05:03:44;1.08;;;0.80;;
28335;SDS011;15592;53.656;7.276;2023-03-03T05:06:10;1.38;;;0.98;;
28335;SDS011;15592;53.656;7.276;2023-03-03T05:08:35;0.77;;;0.77;;
28335;SDS011;15592;53.656;7.276;2023-03-03T05:11:01;1.42;;;0.80;;
28335;SDS011;15592;53.656;7.276;2023-03-03T05:13:27;0.88;;;0.70;;
28335;SDS011;15592;53.656;7.276;2023-03-03T05:15:53;1.63;;;0.90;;
28335;SDS011;15592;53.656;7.276;2023-03-03T05:18:20;1.60;;;0.80;;
28335;SDS011;15592;53.656;7.276;2023-03-03T05:20:48;1.40;;;1.00;;
28335;SDS011;15592;53.656;7.276;2023-03-03T05:23:14;1.38;;;0.88;;
28335;SDS011;15592;53.656;7.276;2023-03-03T05:25:40;2.45;;;1.00;;
28335;SDS011;15592;53.656;7.276;2023-03-03T05:28:07;2.00;;;1.00;;
28335;SDS011;15592;53.656;7.276;2023-03-03T05:30:33;1.17;;;0.90;;
28335;SDS011;15592;53.656;7.276;2023-03-03T05:32:59;1.13;;;1.02;;
28335;SDS011;15592;53.656;7.276;2023-03-03T05:35:25;1.83;;;1.05;;
28335;SDS011;15592;53.656;7.276;2023-03-03T05:37:51;1.55;;;1.02;;
28335;SDS011;15592;53.656;7.276;2023-03-03T05:40:17;2.40;;;1.38;;
28335;SDS011;15592;53.656;7.276;2023-03-03T05:42:43;1.15;;;1.05;;
28335;SDS011;15592;53.656;7.276;2023-03-03T05:45:09;1.25;;;0.80;;
28335;SDS011;15592;53.656;7.276;2023-03-03T05:47:35;1.63;;;1.00;;
28335;SDS011;15592;53.656;7.276;2023-03-03T05:50:00;2.22;;;0.88;;
28335;SDS011;15592;53.656;7.276;2023-03-03T05:52:26;1.80;;;0.98;;
28335;SDS011;15592;53.656;7.276;2023-03-03T05:54:52;2.05;;;1.10;;
28335;SDS011;15592;53.656;7.276;2023-03-03T05:57:18;3.00;;;0.85;;
28335;SDS011;15592;53.656;7.276;2023-03-03T05:59:43;2.65;;;0.90;;
28335;SDS011;15592;53.656;7.276;2023-03-03T06:02:09;2.03;;;1.35;;
28335;SDS011;15592;53.656;7.276;2023-03-03T06:04:34;1.75;;;1.08;;
28335;SDS011;15592;53.656;7.276;2023-03-03T06:07:00;2.72;;;1.13;;
28335;SDS011;15592;53.656;7.276;2023-03-03T06:09:26;2.85;;;1.20;;
28335;SDS011;15592;53.656;7.276;2023-03-03T06:11:51;3.38;;;1.20;;
28335;SDS011;15592;53.656;7.276;2023-03-03T06:14:17;2.65;;;1.40;;
28335;SDS011;15592;53.656;7.276;2023-03-03T06:16:45;1.83;;;1.40;;
28335;SDS011;15592;53.656;7.276;2023-03-03T06:19:12;2.30;;;1.33;;
28335;SDS011;15592;53.656;7.276;2023-03-03T06:21:37;2.53;;;1.40;;
28335;SDS011;15592;53.656;7.276;2023-03-03T06:24:03;2.40;;;1.45;;
28335;SDS011;15592;53.656;7.276;2023-03-03T06:26:30;2.28;;;1.27;;
28335;SDS011;15592;53.656;7.276;2023-03-03T06:28:56;1.50;;;1.30;;
28335;SDS011;15592;53.656;7.276;2023-03-03T06:31:21;4.38;;;1.60;;
28335;SDS011;15592;53.656;7.276;2023-03-03T06:33:47;3.35;;;1.60;;
28335;SDS011;15592;53.656;7.276;2023-03-03T06:36:12;2.80;;;1.55;;
28335;SDS011;15592;53.656;7.276;2023-03-03T06:38:38;2.55;;;1.60;;
28335;SDS011;15592;53.656;7.276;2023-03-03T06:41:04;3.40;;;1.80;;
28335;SDS011;15592;53.656;7.276;2023-03-03T06:43:32;4.25;;;2.20;;
28335;SDS011;15592;53.656;7.276;2023-03-03T06:45:58;2.15;;;1.70;;
28335;SDS011;15592;53.656;7.276;2023-03-03T06:48:24;2.63;;;2.03;;
28335;SDS011;15592;53.656;7.276;2023-03-03T06:50:49;2.83;;;2.03;;
28335;SDS011;15592;53.656;7.276;2023-03-03T06:53:15;2.45;;;1.90;;
28335;SDS011;15592;53.656;7.276;2023-03-03T06:55:42;3.33;;;1.80;;
28335;SDS011;15592;53.656;7.276;2023-03-03T06:58:13;4.93;;;2.95;;
28335;SDS011;15592;53.656;7.276;2023-03-03T07:00:41;2.33;;;1.80;;
28335;SDS011;15592;53.656;7.276;2023-03-03T07:03:16;4.18;;;1.60;;
28335;SDS011;15592;53.656;7.276;2023-03-03T07:05:45;4.00;;;2.00;;
28335;SDS011;15592;53.656;7.276;2023-03-03T07:08:15;3.67;;;2.15;;
28335;SDS011;15592;53.656;7.276;2023-03-03T07:10:46;3.42;;;1.80;;
28335;SDS011;15592;53.656;7.276;2023-03-03T07:13:16;2.13;;;1.50;;
28335;SDS011;15592;53.656;7.276;2023-03-03T07:15:53;4.35;;;1.42;;
28335;SDS011;15592;53.656;7.276;2023-03-03T07:18:34;2.95;;;1.75;;
28335;SDS011;15592;53.656;7.276;2023-03-03T07:21:35;3.00;;;1.55;;
28335;SDS011;15592;53.656;7.276;2023-03-03T07:24:02;4.80;;;2.03;;
28335;SDS011;15592;53.656;7.276;2023-03-03T07:27:18;2.30;;;1.58;;
28335;SDS011;15592;53.656;7.276;2023-03-03T07:29:51;2.15;;;1.52;;
28335;SDS011;15592;53.656;7.276;2023-03-03T07:34:59;4.80;;;2.13;;
28335;SDS011;15592;53.656;7.276;2023-03-03T07:37:38;4.07;;;2.33;;
28335;SDS011;15592;53.656;7.276;2023-03-03T07:45:53;5.15;;;2.70;;
28335;SDS011;15592;53.656;7.276;2023-03-03T07:48:47;7.82;;;2.53;;
28335;SDS011;15592;53.656;7.276;2023-03-03T07:56:45;3.45;;;2.88;;
28335;SDS011;15592;53.656;7.276;2023-03-03T07:59:16;5.80;;;2.88;;
28335;SDS011;15592;53.656;7.276;2023-03-03T08:01:45;4.47;;;3.03;;
28335;SDS011;15592;53.656;7.276;2023-03-03T08:11:49;3.08;;;2.25;;
28335;SDS011;15592;53.656;7.276;2023-03-03T08:14:28;5.40;;;2.42;;
28335;SDS011;15592;53.656;7.276;2023-03-03T08:16:57;3.50;;;2.58;;
28335;SDS011;15592;53.656;7.276;2023-03-03T08:19:23;2.45;;;2.03;;
28335;SDS011;15592;53.656;7.276;2023-03-03T08:21:49;6.30;;;2.88;;
28335;SDS011;15592;53.656;7.276;2023-03-03T08:24:16;3.08;;;2.08;;
28335;SDS011;15592;53.656;7.276;2023-03-03T08:26:42;4.10;;;2.40;;
28335;SDS011;15592;53.656;7.276;2023-03-03T08:29:09;2.90;;;2.00;;
28335;SDS011;15592;53.656;7.276;2023-03-03T08:31:36;4.38;;;2.20;;
28335;SDS011;15592;53.656;7.276;2023-03-03T08:34:01;3.80;;;2.05;;
28335;SDS011;15592;53.656;7.276;2023-03-03T08:36:28;4.95;;;1.63;;
28335;SDS011;15592;53.656;7.276;2023-03-03T08:38:55;2.25;;;1.63;;
28335;SDS011;15592;53.656;7.276;2023-03-03T08:41:20;3.30;;;2.00;;
28335;SDS011;15592;53.656;7.276;2023-03-03T08:43:46;2.53;;;1.30;;
28335;SDS011;15592;53.656;7.276;2023-03-03T08:46:12;1.73;;;1.30;;
28335;SDS011;15592;53.656;7.276;2023-03-03T08:48:37;2.90;;;1.42;;
28335;SDS011;15592;53.656;7.276;2023-03-03T08:51:03;2.17;;;1.13;;
28335;SDS011;15592;53.656;7.276;2023-03-03T08:53:29;1.77;;;1.17;;
28335;SDS011;15592;53.656;7.276;2023-03-03T08:55:57;1.50;;;1.02;;
28335;SDS011;15592;53.656;7.276;2023-03-03T08:58:23;3.67;;;1.08;;
28335;SDS011;15592;53.656;7.276;2023-03-03T09:00:48;1.55;;;1.13;;
28335;SDS011;15592;53.656;7.276;2023-03-03T09:03:14;1.77;;;1.08;;
28335;SDS011;15592;53.656;7.276;2023-03-03T09:05:39;1.77;;;0.90;;
28335;SDS011;15592;53.656;7.276;2023-03-03T09:08:06;2.05;;;1.10;;
28335;SDS011;15592;53.656;7.276;2023-03-03T09:10:32;2.42;;;1.13;;
28335;SDS011;15592;53.656;7.276;2023-03-03T09:13:02;1.85;;;1.05;;
28335;SDS011;15592;53.656;7.276;2023-03-03T09:15:32;3.42;;;1.00;;
28335;SDS011;15592;53.656;7.276;2023-03-03T09:18:09;3.38;;;1.33;;
28335;SDS011;15592;53.656;7.276;2023-03-03T09:20:45;2.05;;;1.02;;
28335;SDS011;15592;53.656;7.276;2023-03-03T09:28:59;2.60;;;0.80;;
28335;SDS011;15592;53.656;7.276;2023-03-03T09:31:43;2.25;;;0.90;;
28335;SDS011;15592;53.656;7.276;2023-03-03T09:34:19;3.60;;;1.08;;
28335;SDS011;15592;53.656;7.276;2023-03-03T09:36:48;1.23;;;0.90;;
28335;SDS011;15592;53.656;7.276;2023-03-03T09:39:16;1.27;;;0.68;;
28335;SDS011;15592;53.656;7.276;2023-03-03T09:44:25;3.67;;;1.00;;
28335;SDS011;15592;53.656;7.276;2023-03-03T09:47:05;3.05;;;0.88;;
28335;SDS011;15592;53.656;7.276;2023-03-03T09:55:46;1.63;;;0.73;;
28335;SDS011;15592;53.656;7.276;2023-03-03T10:01:19;0.68;;;0.60;;
28335;SDS011;15592;53.656;7.276;2023-03-03T10:04:06;1.95;;;0.77;;
28335;SDS011;15592;53.656;7.276;2023-03-03T10:09:48;1.35;;;0.60;;
28335;SDS011;15592;53.656;7.276;2023-03-03T10:15:25;1.20;;;0.60;;
28335;SDS011;15592;53.656;7.276;2023-03-03T10:18:14;0.85;;;0.50;;
28335;SDS011;15592;53.656;7.276;2023-03-03T10:29:10;0.45;;;0.40;;
28335;SDS011;15592;53.656;7.276;2023-03-03T10:32:11;0.77;;;0.50;;
28335;SDS011;15592;53.656;7.276;2023-03-03T10:34:51;1.02;;;0.55;;
28335;SDS011;15592;53.656;7.276;2023-03-03T10:37:27;0.65;;;0.45;;
28335;SDS011;15592;53.656;7.276;2023-03-03T10:46:06;1.42;;;0.50;;
28335;SDS011;15592;53.656;7.276;2023-03-03T10:57:21;0.95;;;0.50;;
28335;SDS011;15592;53.656;7.276;2023-03-03T11:00:21;0.95;;;0.60;;
28335;SDS011;15592;53.656;7.276;2023-03-03T11:05:54;2.15;;;0.70;;
28335;SDS011;15592;53.656;7.276;2023-03-03T11:08:42;1.50;;;0.57;;
28335;SDS011;15592;53.656;7.276;2023-03-03T11:13:47;0.57;;;0.40;;
28335;SDS011;15592;53.656;7.276;2023-03-03T11:16:33;1.65;;;0.47;;
28335;SDS011;15592;53.656;7.276;2023-03-03T11:19:36;1.38;;;0.45;;
28335;SDS011;15592;53.656;7.276;2023-03-03T11:22:30;2.40;;;0.80;;
28335;SDS011;15592;53.656;7.276;2023-03-03T11:28:38;3.72;;;0.70;;
28335;SDS011;15592;53.656;7.276;2023-03-03T11:30:44;2.53;;;0.75;;
28335;SDS011;15592;53.656;7.276;2023-03-03T11:33:33;2.00;;;0.85;;
28335;SDS011;15592;53.656;7.276;2023-03-03T11:38:46;3.17;;;1.05;;
28335;SDS011;15592;53.656;7.276;2023-03-03T11:44:04;2.30;;;0.88;;
28335;SDS011;15592;53.656;7.276;2023-03-03T11:47:00;5.95;;;0.77;;
28335;SDS011;15592;53.656;7.276;2023-03-03T11:49:42;3.25;;;1.00;;
28335;SDS011;15592;53.656;7.276;2023-03-03T11:57:30;2.03;;;0.98;;
28335;SDS011;15592;53.656;7.276;2023-03-03T12:03:10;1.50;;;0.90;;
28335;SDS011;15592;53.656;7.276;2023-03-03T12:08:35;3.45;;;1.15;;
28335;SDS011;15592;53.656;7.276;2023-03-03T12:24:33;2.20;;;0.80;;
28335;SDS011;15592;53.656;7.276;2023-03-03T12:27:10;3.25;;;0.90;;
28335;SDS011;15592;53.656;7.276;2023-03-03T12:35:12;6.72;;;1.50;;
28335;SDS011;15592;53.656;7.276;2023-03-03T12:37:53;9.30;;;2.47;;
28335;SDS011;15592;53.656;7.276;2023-03-03T12:40:35;7.07;;;1.67;;
28335;SDS011;15592;53.656;7.276;2023-03-03T12:43:16;9.00;;;2.28;;
28335;SDS011;15592;53.656;7.276;2023-03-03T12:45:59;6.38;;;1.75;;
28335;SDS011;15592;53.656;7.276;2023-03-03T12:48:39;4.82;;;1.55;;
28335;SDS011;15592;53.656;7.276;2023-03-03T13:16:08;7.20;;;1.52;;
28335;SDS011;15592;53.656;7.276;2023-03-03T13:21:34;6.82;;;1.70;;
28335;SDS011;15592;53.656;7.276;2023-03-03T13:26:42;6.30;;;1.50;;
28335;SDS011;15592;53.656;7.276;2023-03-03T13:35:03;6.93;;;1.58;;
28335;SDS011;15592;53.656;7.276;2023-03-03T13:37:56;4.88;;;1.17;;
28335;SDS011;15592;53.656;7.276;2023-03-03T13:40:35;3.72;;;1.40;;
28335;SDS011;15592;53.656;7.276;2023-03-03T13:43:12;5.45;;;1.65;;
28335;SDS011;15592;53.656;7.276;2023-03-03T13:45:53;3.70;;;1.20;;
28335;SDS011;15592;53.656;7.276;2023-03-03T13:48:38;5.55;;;1.50;;
28335;SDS011;15592;53.656;7.276;2023-03-03T13:56:40;4.40;;;1.50;;
28335;SDS011;15592;53.656;7.276;2023-03-03T14:05:03;3.38;;;1.00;;
28335;SDS011;15592;53.656;7.276;2023-03-03T14:10:42;2.63;;;0.95;;
28335;SDS011;15592;53.656;7.276;2023-03-03T14:13:10;1.48;;;0.80;;
28335;SDS011;15592;53.656;7.276;2023-03-03T14:15:43;3.20;;;1.17;;
28335;SDS011;15592;53.656;7.276;2023-03-03T14:18:23;5.17;;;1.20;;
28335;SDS011;15592;53.656;7.276;2023-03-03T14:21:08;3.40;;;1.00;;
28335;SDS011;15592;53.656;7.276;2023-03-03T14:26:19;4.03;;;1.20;;
28335;SDS011;15592;53.656;7.276;2023-03-03T14:28:46;1.92;;;0.80;;
28335;SDS011;15592;53.656;7.276;2023-03-03T14:36:56;7.10;;;1.50;;
28335;SDS011;15592;53.656;7.276;2023-03-03T14:39:27;7.05;;;1.58;;
28335;SDS011;15592;53.656;7.276;2023-03-03T14:41:58;3.75;;;1.35;;
28335;SDS011;15592;53.656;7.276;2023-03-03T14:49:35;6.97;;;1.83;;
28335;SDS011;15592;53.656;7.276;2023-03-03T14:52:26;5.22;;;1.35;;
28335;SDS011;15592;53.656;7.276;2023-03-03T14:54:53;3.60;;;1.27;;
28335;SDS011;15592;53.656;7.276;2023-03-03T14:57:22;3.10;;;1.30;;
28335;SDS011;15592;53.656;7.276;2023-03-03T15:05:20;6.20;;;1.50;;
28335;SDS011;15592;53.656;7.276;2023-03-03T15:07:49;7.20;;;2.08;;
28335;SDS011;15592;53.656;7.276;2023-03-03T15:10:34;6.20;;;2.35;;
28335;SDS011;15592;53.656;7.276;2023-03-03T15:18:23;9.20;;;2.15;;
28335;SDS011;15592;53.656;7.276;2023-03-03T15:21:06;6.88;;;1.73;;
28335;SDS011;15592;53.656;7.276;2023-03-03T15:31:43;13.02;;;2.75;;
28335;SDS011;15592;53.656;7.276;2023-03-03T15:39:47;12.15;;;2.75;;
28335;SDS011;15592;53.656;7.276;2023-03-03T15:42:26;8.05;;;2.33;;
28335;SDS011;15592;53.656;7.276;2023-03-03T15:56:05;10.48;;;2.17;;
28335;SDS011;15592;53.656;7.276;2023-03-03T15:58:41;18.65;;;3.80;;
28335;SDS011;15592;53.656;7.276;2023-03-03T16:01:26;23.42;;;4.55;;
28335;SDS011;15592;53.656;7.276;2023-03-03T16:04:09;15.45;;;2.97;;
28335;SDS011;15592;53.656;7.276;2023-03-03T16:07:41;20.90;;;3.15;;
28335;SDS011;15592;53.656;7.276;2023-03-03T16:12:24;21.00;;;3.90;;
28335;SDS011;15592;53.656;7.276;2023-03-03T16:17:56;21.20;;;3.83;;
28335;SDS011;15592;53.656;7.276;2023-03-03T16:23:24;16.83;;;3.60;;
28335;SDS011;15592;53.656;7.276;2023-03-03T16:26:05;22.00;;;4.40;;
28335;SDS011;15592;53.656;7.276;2023-03-03T16:29:07;24.70;;;4.30;;
28335;SDS011;15592;53.656;7.276;2023-03-03T16:38:01;25.83;;;3.57;;
28335;SDS011;15592;53.656;7.276;2023-03-03T16:43:42;24.95;;;4.18;;
28335;SDS011;15592;53.656;7.276;2023-03-03T16:46:33;17.80;;;3.72;;
28335;SDS011;15592;53.656;7.276;2023-03-03T16:51:48;17.50;;;3.72;;
28335;SDS011;15592;53.656;7.276;2023-03-03T16:54:38;17.88;;;3.55;;
28335;SDS011;15592;53.656;7.276;2023-03-03T16:57:38;12.23;;;3.00;;
28335;SDS011;15592;53.656;7.276;2023-03-03T17:00:18;20.60;;;4.03;;
28335;SDS011;15592;53.656;7.276;2023-03-03T17:03:12;17.93;;;3.40;;
28335;SDS011;15592;53.656;7.276;2023-03-03T17:08:56;17.73;;;3.17;;
28335;SDS011;15592;53.656;7.276;2023-03-03T17:16:53;37.53;;;4.78;;
28335;SDS011;15592;53.656;7.276;2023-03-03T17:22:17;24.58;;;4.22;;
28335;SDS011;15592;53.656;7.276;2023-03-03T17:44:19;32.90;;;5.82;;
28335;SDS011;15592;53.656;7.276;2023-03-03T17:47:08;32.88;;;5.57;;
28335;SDS011;15592;53.656;7.276;2023-03-03T17:50:01;30.40;;;4.50;;
28335;SDS011;15592;53.656;7.276;2023-03-03T18:01:27;46.25;;;5.68;;
28335;SDS011;15592;53.656;7.276;2023-03-03T18:23:40;30.83;;;5.25;;
28335;SDS011;15592;53.656;7.276;2023-03-03T18:34:25;35.08;;;5.45;;
28335;SDS011;15592;53.656;7.276;2023-03-03T18:36:59;37.30;;;5.70;;
28335;SDS011;15592;53.656;7.276;2023-03-03T18:39:39;33.88;;;5.35;;
28335;SDS011;15592;53.656;7.276;2023-03-03T18:50:34;28.92;;;4.38;;
28335;SDS011;15592;53.656;7.276;2023-03-03T18:53:27;29.17;;;5.28;;
28335;SDS011;15592;53.656;7.276;2023-03-03T18:55:54;41.60;;;5.22;;
28335;SDS011;15592;53.656;7.276;2023-03-03T19:00:57;29.00;;;4.25;;
28335;SDS011;15592;53.656;7.276;2023-03-03T19:09:00;32.50;;;5.15;;
28335;SDS011;15592;53.656;7.276;2023-03-03T19:16:58;33.30;;;5.10;;
28335;SDS011;15592;53.656;7.276;2023-03-03T19:20:04;37.03;;;5.20;;
28335;SDS011;15592;53.656;7.276;2023-03-03T19:22:48;34.60;;;4.80;;
28335;SDS011;15592;53.656;7.276;2023-03-03T19:25:16;35.42;;;5.45;;
28335;SDS011;15592;53.656;7.276;2023-03-03T19:30:41;31.92;;;4.47;;
28335;SDS011;15592;53.656;7.276;2023-03-03T19:36:03;25.80;;;5.10;;
28335;SDS011;15592;53.656;7.276;2023-03-03T19:51:57;35.50;;;4.18;;
28335;SDS011;15592;53.656;7.276;2023-03-03T19:55:01;27.30;;;4.28;;
28335;SDS011;15592;53.656;7.276;2023-03-03T19:57:49;29.55;;;4.00;;
28335;SDS011;15592;53.656;7.276;2023-03-03T20:14:51;24.80;;;3.90;;
28335;SDS011;15592;53.656;7.276;2023-03-03T20:17:42;25.20;;;3.65;;
28335;SDS011;15592;53.656;7.276;2023-03-03T20:20:30;23.92;;;3.63;;
28335;SDS011;15592;53.656;7.276;2023-03-03T20:26:25;21.48;;;3.38;;
28335;SDS011;15592;53.656;7.276;2023-03-03T20:29:29;28.23;;;3.65;;
28335;SDS011;15592;53.656;7.276;2023-03-03T20:32:10;21.05;;;4.68;;
28335;SDS011;15592;53.656;7.276;2023-03-03T20:43:06;22.60;;;3.10;;
28335;SDS011;15592;53.656;7.276;2023-03-03T20:45:56;21.05;;;3.80;;
28335;SDS011;15592;53.656;7.276;2023-03-03T20:53:55;18.38;;;3.55;;
28335;SDS011;15592;53.656;7.276;2023-03-03T20:56:35;15.95;;;3.10;;
28335;SDS011;15592;53.656;7.276;2023-03-03T21:01:44;15.00;;;2.88;;
28335;SDS011;15592;53.656;7.276;2023-03-03T21:04:21;27.23;;;3.92;;
28335;SDS011;15592;53.656;7.276;2023-03-03T21:06:52;19.83;;;3.55;;
28335;SDS011;15592;53.656;7.276;2023-03-03T21:12:09;15.25;;;3.28;;
28335;SDS011;15592;53.656;7.276;2023-03-03T21:15:02;14.90;;;2.33;;
28335;SDS011;15592;53.656;7.276;2023-03-03T21:17:31;14.23;;;2.58;;
28335;SDS011;15592;53.656;7.276;2023-03-03T21:20:17;14.30;;;2.33;;
28335;SDS011;15592;53.656;7.276;2023-03-03T21:22:48;14.88;;;2.60;;
28335;SDS011;15592;53.656;7.276;2023-03-03T21:31:00;22.08;;;3.60;;
28335;SDS011;15592;53.656;7.276;2023-03-03T21:36:18;24.40;;;3.60;;
28335;SDS011;15592;53.656;7.276;2023-03-03T21:41:14;18.70;;;3.42;;
28335;SDS011;15592;53.656;7.276;2023-03-03T21:43:42;12.55;;;2.58;;
28335;SDS011;15592;53.656;7.276;2023-03-03T21:46:12;16.65;;;3.20;;
28335;SDS011;15592;53.656;7.276;2023-03-03T21:48:41;14.55;;;2.70;;
28335;SDS011;15592;53.656;7.276;2023-03-03T21:51:10;17.55;;;2.80;;
28335;SDS011;15592;53.656;7.276;2023-03-03T21:53:38;18.42;;;3.15;;